This is the latest recevied weather packets stored in our database for station/object N3TTT-13. If no packets are shown the sender has not sent any weather packets the latest 10 day(s).
| Time | Temp. | Humidity | Pressure | Rain* | Wind** | Luminosity | Snow |
|---|---|---|---|---|---|---|---|
| 1777298448 | 16.11° C | 56% | 1025.4 hPa | 0 mm | - | 658 W/m² | - |
| 1777298144 | 15.56° C | 58% | 1025.2 hPa | 0 mm | - | 637 W/m² | - |
| 1777297839 | 15° C | 58% | 1025.2 hPa | 0 mm | - | 607 W/m² | - |
| 1777297538 | 15° C | 63% | 1025.4 hPa | 0 mm | - | 622 W/m² | - |
| 1777297234 | 14.44° C | 62% | 1025.2 hPa | 0 mm | - | 586 W/m² | - |
| 1777296931 | 15° C | 62% | 1025.1 hPa | 0 mm | - | 542 W/m² | - |
| 1777296627 | 14.44° C | 65% | 1025 hPa | 0 mm | - | 517 W/m² | - |
| 1777296297 | 13.33° C | 68% | 1025.1 hPa | 0 mm | - | 511 W/m² | - |
| 1777295994 | 13.33° C | 70% | 1025.1 hPa | 0 mm | - | 452 W/m² | - |
| 1777295691 | 13.33° C | 71% | 1025.1 hPa | 0 mm | - | 427 W/m² | - |
| 1777295389 | 12.78° C | 69% | 1025.1 hPa | 0 mm | - | 370 W/m² | - |
| 1777295086 | 12.22° C | 73% | 1024.9 hPa | 0 mm | - | 380 W/m² | - |
| 1777294783 | 12.22° C | 75% | 1024.7 hPa | 0 mm | - | 381 W/m² | - |
| 1777294478 | 12.22° C | 76% | 1024.7 hPa | 0 mm | - | 341 W/m² | - |
| 1777294175 | 12.22° C | 78% | 1024.8 hPa | 0 mm | - | 296 W/m² | - |
| 1777293872 | 11.67° C | 79% | 1024.7 hPa | 0 mm | - | 291 W/m² | - |
| 1777293567 | 11.11° C | 81% | 1024.7 hPa | 0 mm | - | 267 W/m² | - |
| 1777293263 | 10.56° C | 81% | 1024.6 hPa | 0 mm | - | 156 W/m² | - |
| 1777292962 | 10.56° C | 83% | 1024.5 hPa | 0 mm | - | 115 W/m² | - |
| 1777292658 | 10° C | 85% | 1024.5 hPa | 0 mm | - | 108 W/m² | - |
| 1777292354 | 10° C | 89% | 1024.2 hPa | 0 mm | - | 103 W/m² | - |
| 1777292050 | 9.44° C | 93% | 1024.4 hPa | 0 mm | - | 100 W/m² | - |
| 1777291747 | 8.89° C | 95% | 1024.5 hPa | 0 mm | - | 121 W/m² | - |
| 1777291444 | 8.33° C | 95% | 1024.3 hPa | 0 mm | - | 96 W/m² | - |
| 1777291141 | 7.78° C | 96% | 1024.4 hPa | 0 mm | - | 109 W/m² | - |
* Rain latest hour (hover to see other rain measurements)
** Current wind speed in m/s (hover to see current wind gust speed)